sensor_id;sensor_type;location;lat;lon;timestamp;P1;durP1;ratioP1;P2;durP2;ratioP2
17365;SDS011;8800;50.118;9.900;2023-07-29T00:02:01;4.72;;;2.92;;
17365;SDS011;8800;50.118;9.900;2023-07-29T00:04:29;4.45;;;2.35;;
17365;SDS011;8800;50.118;9.900;2023-07-29T00:06:56;3.65;;;1.92;;
17365;SDS011;8800;50.118;9.900;2023-07-29T00:09:24;3.95;;;1.60;;
17365;SDS011;8800;50.118;9.900;2023-07-29T00:11:51;2.15;;;1.85;;
17365;SDS011;8800;50.118;9.900;2023-07-29T00:14:19;2.35;;;1.55;;
17365;SDS011;8800;50.118;9.900;2023-07-29T00:16:45;2.45;;;1.60;;
17365;SDS011;8800;50.118;9.900;2023-07-29T00:19:12;2.88;;;1.60;;
17365;SDS011;8800;50.118;9.900;2023-07-29T00:21:39;2.78;;;1.65;;
17365;SDS011;8800;50.118;9.900;2023-07-29T00:24:06;3.15;;;1.65;;
17365;SDS011;8800;50.118;9.900;2023-07-29T00:26:32;3.20;;;1.73;;
17365;SDS011;8800;50.118;9.900;2023-07-29T00:28:59;2.03;;;1.50;;
17365;SDS011;8800;50.118;9.900;2023-07-29T00:31:27;3.03;;;1.80;;
17365;SDS011;8800;50.118;9.900;2023-07-29T00:33:53;3.95;;;1.65;;
17365;SDS011;8800;50.118;9.900;2023-07-29T00:36:20;2.28;;;1.55;;
17365;SDS011;8800;50.118;9.900;2023-07-29T00:38:47;3.40;;;1.60;;
17365;SDS011;8800;50.118;9.900;2023-07-29T00:41:13;2.75;;;1.90;;
17365;SDS011;8800;50.118;9.900;2023-07-29T00:43:40;2.67;;;1.60;;
17365;SDS011;8800;50.118;9.900;2023-07-29T00:46:07;4.72;;;1.67;;
17365;SDS011;8800;50.118;9.900;2023-07-29T00:48:39;3.58;;;1.70;;
17365;SDS011;8800;50.118;9.900;2023-07-29T00:51:06;2.35;;;1.80;;
17365;SDS011;8800;50.118;9.900;2023-07-29T00:53:32;4.15;;;1.80;;
17365;SDS011;8800;50.118;9.900;2023-07-29T00:55:59;2.42;;;1.55;;
17365;SDS011;8800;50.118;9.900;2023-07-29T00:58:26;3.28;;;1.63;;
17365;SDS011;8800;50.118;9.900;2023-07-29T01:00:52;1.85;;;1.45;;
17365;SDS011;8800;50.118;9.900;2023-07-29T01:03:19;5.15;;;1.75;;
17365;SDS011;8800;50.118;9.900;2023-07-29T01:05:50;3.58;;;1.90;;
17365;SDS011;8800;50.118;9.900;2023-07-29T01:08:18;4.20;;;1.67;;
17365;SDS011;8800;50.118;9.900;2023-07-29T01:10:51;4.18;;;1.70;;
17365;SDS011;8800;50.118;9.900;2023-07-29T01:13:22;2.33;;;1.60;;
17365;SDS011;8800;50.118;9.900;2023-07-29T01:15:54;3.08;;;1.70;;
17365;SDS011;8800;50.118;9.900;2023-07-29T01:18:22;3.47;;;1.90;;
17365;SDS011;8800;50.118;9.900;2023-07-29T01:20:50;4.93;;;1.92;;
17365;SDS011;8800;50.118;9.900;2023-07-29T01:23:23;2.75;;;1.85;;
17365;SDS011;8800;50.118;9.900;2023-07-29T01:25:50;3.63;;;1.70;;
17365;SDS011;8800;50.118;9.900;2023-07-29T01:28:16;2.17;;;1.58;;
17365;SDS011;8800;50.118;9.900;2023-07-29T01:30:43;3.17;;;1.75;;
17365;SDS011;8800;50.118;9.900;2023-07-29T01:33:13;3.35;;;1.60;;
17365;SDS011;8800;50.118;9.900;2023-07-29T01:35:42;2.63;;;1.42;;
17365;SDS011;8800;50.118;9.900;2023-07-29T01:38:11;1.85;;;1.60;;
17365;SDS011;8800;50.118;9.900;2023-07-29T01:40:42;4.35;;;1.77;;
17365;SDS011;8800;50.118;9.900;2023-07-29T01:43:12;2.15;;;1.63;;
17365;SDS011;8800;50.118;9.900;2023-07-29T01:45:39;3.15;;;1.80;;
17365;SDS011;8800;50.118;9.900;2023-07-29T01:48:06;3.05;;;1.92;;
17365;SDS011;8800;50.118;9.900;2023-07-29T01:50:33;3.13;;;1.80;;
17365;SDS011;8800;50.118;9.900;2023-07-29T01:53:00;2.00;;;1.80;;
17365;SDS011;8800;50.118;9.900;2023-07-29T01:55:29;3.28;;;2.00;;
17365;SDS011;8800;50.118;9.900;2023-07-29T01:57:57;3.65;;;2.15;;
17365;SDS011;8800;50.118;9.900;2023-07-29T02:00:24;2.85;;;2.00;;
17365;SDS011;8800;50.118;9.900;2023-07-29T02:02:51;2.78;;;2.25;;
17365;SDS011;8800;50.118;9.900;2023-07-29T02:05:17;4.97;;;1.90;;
17365;SDS011;8800;50.118;9.900;2023-07-29T02:07:46;3.42;;;1.90;;
17365;SDS011;8800;50.118;9.900;2023-07-29T02:10:13;3.22;;;1.73;;
17365;SDS011;8800;50.118;9.900;2023-07-29T02:12:39;2.42;;;2.00;;
17365;SDS011;8800;50.118;9.900;2023-07-29T02:15:08;5.05;;;2.13;;
17365;SDS011;8800;50.118;9.900;2023-07-29T02:17:34;3.17;;;2.10;;
17365;SDS011;8800;50.118;9.900;2023-07-29T02:20:01;3.45;;;1.85;;
17365;SDS011;8800;50.118;9.900;2023-07-29T02:22:29;2.85;;;2.10;;
17365;SDS011;8800;50.118;9.900;2023-07-29T02:24:55;2.30;;;2.10;;
17365;SDS011;8800;50.118;9.900;2023-07-29T02:27:21;3.33;;;1.92;;
17365;SDS011;8800;50.118;9.900;2023-07-29T02:29:50;3.30;;;2.38;;
17365;SDS011;8800;50.118;9.900;2023-07-29T02:32:18;5.90;;;2.47;;
17365;SDS011;8800;50.118;9.900;2023-07-29T02:34:44;3.95;;;3.15;;
17365;SDS011;8800;50.118;9.900;2023-07-29T02:37:10;4.22;;;2.88;;
17365;SDS011;8800;50.118;9.900;2023-07-29T02:39:37;7.35;;;2.85;;
17365;SDS011;8800;50.118;9.900;2023-07-29T02:42:03;4.38;;;2.65;;
17365;SDS011;8800;50.118;9.900;2023-07-29T02:44:30;3.45;;;2.20;;
17365;SDS011;8800;50.118;9.900;2023-07-29T02:46:57;3.22;;;2.50;;
17365;SDS011;8800;50.118;9.900;2023-07-29T02:49:24;4.93;;;2.40;;
17365;SDS011;8800;50.118;9.900;2023-07-29T02:51:51;2.90;;;2.60;;
17365;SDS011;8800;50.118;9.900;2023-07-29T02:54:20;2.75;;;2.38;;
17365;SDS011;8800;50.118;9.900;2023-07-29T02:56:46;2.60;;;2.40;;
17365;SDS011;8800;50.118;9.900;2023-07-29T02:59:13;2.97;;;2.50;;
17365;SDS011;8800;50.118;9.900;2023-07-29T03:01:40;5.15;;;2.70;;
17365;SDS011;8800;50.118;9.900;2023-07-29T03:04:06;3.97;;;3.30;;
17365;SDS011;8800;50.118;9.900;2023-07-29T03:06:37;3.72;;;3.33;;
17365;SDS011;8800;50.118;9.900;2023-07-29T03:09:03;4.53;;;3.45;;
17365;SDS011;8800;50.118;9.900;2023-07-29T03:11:30;4.47;;;3.50;;
17365;SDS011;8800;50.118;9.900;2023-07-29T03:13:57;5.80;;;3.58;;
17365;SDS011;8800;50.118;9.900;2023-07-29T03:16:23;6.45;;;3.55;;
17365;SDS011;8800;50.118;9.900;2023-07-29T03:18:51;5.00;;;2.95;;
17365;SDS011;8800;50.118;9.900;2023-07-29T03:21:17;3.65;;;2.83;;
17365;SDS011;8800;50.118;9.900;2023-07-29T03:23:45;3.50;;;3.20;;
17365;SDS011;8800;50.118;9.900;2023-07-29T03:26:13;7.47;;;3.38;;
17365;SDS011;8800;50.118;9.900;2023-07-29T03:28:40;6.55;;;3.40;;
17365;SDS011;8800;50.118;9.900;2023-07-29T03:31:06;4.05;;;2.97;;
17365;SDS011;8800;50.118;9.900;2023-07-29T03:33:33;4.68;;;3.13;;
17365;SDS011;8800;50.118;9.900;2023-07-29T03:36:00;4.82;;;3.40;;
17365;SDS011;8800;50.118;9.900;2023-07-29T03:38:26;4.95;;;3.05;;
17365;SDS011;8800;50.118;9.900;2023-07-29T03:40:54;5.63;;;3.03;;
17365;SDS011;8800;50.118;9.900;2023-07-29T03:43:23;5.30;;;3.17;;
17365;SDS011;8800;50.118;9.900;2023-07-29T03:45:50;3.58;;;3.10;;
17365;SDS011;8800;50.118;9.900;2023-07-29T03:48:16;4.65;;;3.10;;
17365;SDS011;8800;50.118;9.900;2023-07-29T03:50:43;3.28;;;2.97;;
17365;SDS011;8800;50.118;9.900;2023-07-29T03:53:09;3.75;;;3.22;;
17365;SDS011;8800;50.118;9.900;2023-07-29T03:55:36;4.80;;;3.78;;
17365;SDS011;8800;50.118;9.900;2023-07-29T03:58:04;4.47;;;3.10;;
17365;SDS011;8800;50.118;9.900;2023-07-29T04:00:30;3.80;;;3.50;;
17365;SDS011;8800;50.118;9.900;2023-07-29T04:02:57;6.72;;;3.78;;
17365;SDS011;8800;50.118;9.900;2023-07-29T04:05:23;7.20;;;3.55;;
17365;SDS011;8800;50.118;9.900;2023-07-29T04:07:49;5.25;;;3.60;;
17365;SDS011;8800;50.118;9.900;2023-07-29T04:10:16;3.47;;;3.17;;
17365;SDS011;8800;50.118;9.900;2023-07-29T04:12:43;6.47;;;3.53;;
17365;SDS011;8800;50.118;9.900;2023-07-29T04:15:11;7.50;;;3.60;;
17365;SDS011;8800;50.118;9.900;2023-07-29T04:17:37;9.30;;;4.25;;
17365;SDS011;8800;50.118;9.900;2023-07-29T04:20:04;6.00;;;3.95;;
17365;SDS011;8800;50.118;9.900;2023-07-29T04:22:31;4.05;;;3.10;;
17365;SDS011;8800;50.118;9.900;2023-07-29T04:24:59;4.60;;;3.55;;
17365;SDS011;8800;50.118;9.900;2023-07-29T04:27:26;4.25;;;3.53;;
17365;SDS011;8800;50.118;9.900;2023-07-29T04:29:53;3.10;;;2.80;;
17365;SDS011;8800;50.118;9.900;2023-07-29T04:32:21;5.20;;;3.22;;
17365;SDS011;8800;50.118;9.900;2023-07-29T04:34:47;4.05;;;3.10;;
17365;SDS011;8800;50.118;9.900;2023-07-29T04:37:14;4.75;;;3.42;;
17365;SDS011;8800;50.118;9.900;2023-07-29T04:39:40;5.05;;;3.20;;
17365;SDS011;8800;50.118;9.900;2023-07-29T04:42:07;5.15;;;3.47;;
17365;SDS011;8800;50.118;9.900;2023-07-29T04:44:33;5.32;;;3.33;;
17365;SDS011;8800;50.118;9.900;2023-07-29T04:47:00;7.00;;;3.65;;
17365;SDS011;8800;50.118;9.900;2023-07-29T04:49:28;4.30;;;3.45;;
17365;SDS011;8800;50.118;9.900;2023-07-29T04:51:56;6.15;;;3.90;;
17365;SDS011;8800;50.118;9.900;2023-07-29T04:54:22;4.07;;;3.67;;
17365;SDS011;8800;50.118;9.900;2023-07-29T04:56:49;3.95;;;3.35;;
17365;SDS011;8800;50.118;9.900;2023-07-29T04:59:15;4.05;;;3.63;;
17365;SDS011;8800;50.118;9.900;2023-07-29T05:01:42;5.63;;;3.95;;
17365;SDS011;8800;50.118;9.900;2023-07-29T05:04:08;5.85;;;3.38;;
17365;SDS011;8800;50.118;9.900;2023-07-29T05:06:36;3.92;;;3.55;;
17365;SDS011;8800;50.118;9.900;2023-07-29T05:09:12;8.75;;;3.50;;
17365;SDS011;8800;50.118;9.900;2023-07-29T05:11:38;6.25;;;3.35;;
17365;SDS011;8800;50.118;9.900;2023-07-29T05:14:05;8.30;;;3.53;;
17365;SDS011;8800;50.118;9.900;2023-07-29T05:16:32;7.47;;;3.40;;
17365;SDS011;8800;50.118;9.900;2023-07-29T05:18:59;4.32;;;3.33;;
17365;SDS011;8800;50.118;9.900;2023-07-29T05:21:25;7.60;;;3.50;;
17365;SDS011;8800;50.118;9.900;2023-07-29T05:23:53;5.82;;;3.92;;
17365;SDS011;8800;50.118;9.900;2023-07-29T05:26:19;4.82;;;3.42;;
17365;SDS011;8800;50.118;9.900;2023-07-29T05:28:46;3.75;;;3.20;;
17365;SDS011;8800;50.118;9.900;2023-07-29T05:31:15;5.50;;;3.03;;
17365;SDS011;8800;50.118;9.900;2023-07-29T05:33:42;5.72;;;3.20;;
17365;SDS011;8800;50.118;9.900;2023-07-29T05:36:08;4.38;;;3.10;;
17365;SDS011;8800;50.118;9.900;2023-07-29T05:38:35;4.50;;;2.83;;
17365;SDS011;8800;50.118;9.900;2023-07-29T05:41:03;7.03;;;3.55;;
17365;SDS011;8800;50.118;9.900;2023-07-29T05:43:30;5.90;;;2.90;;
17365;SDS011;8800;50.118;9.900;2023-07-29T05:45:56;5.32;;;3.00;;
17365;SDS011;8800;50.118;9.900;2023-07-29T05:48:22;4.00;;;3.03;;
17365;SDS011;8800;50.118;9.900;2023-07-29T05:50:49;2.97;;;2.50;;
17365;SDS011;8800;50.118;9.900;2023-07-29T05:53:17;4.45;;;2.75;;
17365;SDS011;8800;50.118;9.900;2023-07-29T05:55:45;5.97;;;2.67;;
17365;SDS011;8800;50.118;9.900;2023-07-29T05:58:13;5.25;;;2.80;;
17365;SDS011;8800;50.118;9.900;2023-07-29T06:00:40;4.50;;;2.90;;
17365;SDS011;8800;50.118;9.900;2023-07-29T06:03:07;6.25;;;2.63;;
17365;SDS011;8800;50.118;9.900;2023-07-29T06:05:34;3.60;;;2.60;;
17365;SDS011;8800;50.118;9.900;2023-07-29T06:08:00;4.68;;;2.95;;
17365;SDS011;8800;50.118;9.900;2023-07-29T06:10:27;3.92;;;2.53;;
17365;SDS011;8800;50.118;9.900;2023-07-29T06:12:53;3.78;;;2.08;;
17365;SDS011;8800;50.118;9.900;2023-07-29T06:15:22;5.53;;;2.30;;
17365;SDS011;8800;50.118;9.900;2023-07-29T06:17:48;5.72;;;2.20;;
17365;SDS011;8800;50.118;9.900;2023-07-29T06:20:16;4.40;;;1.90;;
17365;SDS011;8800;50.118;9.900;2023-07-29T06:22:43;5.93;;;2.10;;
17365;SDS011;8800;50.118;9.900;2023-07-29T06:25:09;2.28;;;1.70;;
17365;SDS011;8800;50.118;9.900;2023-07-29T06:27:36;3.30;;;1.70;;
17365;SDS011;8800;50.118;9.900;2023-07-29T06:30:02;2.80;;;1.80;;
17365;SDS011;8800;50.118;9.900;2023-07-29T06:32:30;3.60;;;1.95;;
17365;SDS011;8800;50.118;9.900;2023-07-29T06:34:57;3.15;;;1.88;;
17365;SDS011;8800;50.118;9.900;2023-07-29T06:37:24;5.03;;;1.83;;
17365;SDS011;8800;50.118;9.900;2023-07-29T06:39:50;3.30;;;1.48;;
17365;SDS011;8800;50.118;9.900;2023-07-29T06:42:17;6.70;;;1.70;;
17365;SDS011;8800;50.118;9.900;2023-07-29T06:44:43;1.73;;;1.40;;
17365;SDS011;8800;50.118;9.900;2023-07-29T06:47:10;3.40;;;1.83;;
17365;SDS011;8800;50.118;9.900;2023-07-29T06:49:38;3.47;;;1.60;;
17365;SDS011;8800;50.118;9.900;2023-07-29T06:52:05;5.07;;;1.88;;
17365;SDS011;8800;50.118;9.900;2023-07-29T06:54:31;2.63;;;1.70;;
17365;SDS011;8800;50.118;9.900;2023-07-29T06:56:58;3.42;;;1.70;;
17365;SDS011;8800;50.118;9.900;2023-07-29T06:59:24;3.22;;;1.55;;
17365;SDS011;8800;50.118;9.900;2023-07-29T07:01:51;3.35;;;1.50;;
17365;SDS011;8800;50.118;9.900;2023-07-29T07:04:18;4.22;;;1.70;;
17365;SDS011;8800;50.118;9.900;2023-07-29T07:06:45;3.53;;;1.67;;
17365;SDS011;8800;50.118;9.900;2023-07-29T07:09:12;2.13;;;1.70;;
17365;SDS011;8800;50.118;9.900;2023-07-29T07:11:38;3.08;;;1.67;;
17365;SDS011;8800;50.118;9.900;2023-07-29T07:14:05;3.28;;;1.77;;
17365;SDS011;8800;50.118;9.900;2023-07-29T07:16:31;3.45;;;2.15;;
17365;SDS011;8800;50.118;9.900;2023-07-29T07:18:58;3.78;;;1.90;;
17365;SDS011;8800;50.118;9.900;2023-07-29T07:21:24;4.38;;;2.38;;
17365;SDS011;8800;50.118;9.900;2023-07-29T07:23:52;7.22;;;3.85;;
17365;SDS011;8800;50.118;9.900;2023-07-29T07:26:19;7.50;;;3.75;;
17365;SDS011;8800;50.118;9.900;2023-07-29T07:28:45;7.00;;;3.40;;
17365;SDS011;8800;50.118;9.900;2023-07-29T07:31:12;5.35;;;3.10;;
17365;SDS011;8800;50.118;9.900;2023-07-29T07:33:38;8.43;;;2.90;;
17365;SDS011;8800;50.118;9.900;2023-07-29T07:36:05;4.95;;;2.92;;
17365;SDS011;8800;50.118;9.900;2023-07-29T07:38:31;5.85;;;3.10;;
17365;SDS011;8800;50.118;9.900;2023-07-29T07:40:59;7.50;;;2.88;;
17365;SDS011;8800;50.118;9.900;2023-07-29T07:43:26;3.50;;;2.53;;
17365;SDS011;8800;50.118;9.900;2023-07-29T07:45:57;4.78;;;1.90;;
17365;SDS011;8800;50.118;9.900;2023-07-29T07:48:23;5.35;;;2.42;;
17365;SDS011;8800;50.118;9.900;2023-07-29T07:50:50;5.70;;;2.30;;
17365;SDS011;8800;50.118;9.900;2023-07-29T07:53:18;3.53;;;2.00;;
17365;SDS011;8800;50.118;9.900;2023-07-29T07:55:46;3.95;;;2.35;;
17365;SDS011;8800;50.118;9.900;2023-07-29T07:58:14;5.10;;;2.53;;
17365;SDS011;8800;50.118;9.900;2023-07-29T08:00:41;5.15;;;2.40;;
17365;SDS011;8800;50.118;9.900;2023-07-29T08:03:08;2.30;;;1.80;;
17365;SDS011;8800;50.118;9.900;2023-07-29T08:05:34;3.08;;;1.95;;
17365;SDS011;8800;50.118;9.900;2023-07-29T08:08:01;3.00;;;1.70;;
17365;SDS011;8800;50.118;9.900;2023-07-29T08:10:27;6.93;;;1.90;;
17365;SDS011;8800;50.118;9.900;2023-07-29T08:12:54;3.40;;;2.20;;
17365;SDS011;8800;50.118;9.900;2023-07-29T08:15:22;4.03;;;2.03;;
17365;SDS011;8800;50.118;9.900;2023-07-29T08:17:49;3.22;;;1.73;;
17365;SDS011;8800;50.118;9.900;2023-07-29T08:20:15;5.55;;;2.28;;
17365;SDS011;8800;50.118;9.900;2023-07-29T08:22:41;6.63;;;2.65;;
17365;SDS011;8800;50.118;9.900;2023-07-29T08:25:09;2.90;;;2.00;;
17365;SDS011;8800;50.118;9.900;2023-07-29T08:27:36;2.13;;;1.80;;
17365;SDS011;8800;50.118;9.900;2023-07-29T08:30:02;2.97;;;1.77;;
17365;SDS011;8800;50.118;9.900;2023-07-29T08:32:30;4.10;;;2.17;;
17365;SDS011;8800;50.118;9.900;2023-07-29T08:34:57;4.25;;;1.90;;
17365;SDS011;8800;50.118;9.900;2023-07-29T08:37:23;2.35;;;1.83;;
17365;SDS011;8800;50.118;9.900;2023-07-29T08:39:52;2.88;;;1.95;;
17365;SDS011;8800;50.118;9.900;2023-07-29T08:42:19;4.10;;;1.85;;
17365;SDS011;8800;50.118;9.900;2023-07-29T08:44:45;3.90;;;1.85;;
17365;SDS011;8800;50.118;9.900;2023-07-29T08:47:14;8.13;;;1.73;;
17365;SDS011;8800;50.118;9.900;2023-07-29T08:49:43;3.15;;;1.70;;
17365;SDS011;8800;50.118;9.900;2023-07-29T08:52:10;2.10;;;1.30;;
17365;SDS011;8800;50.118;9.900;2023-07-29T08:54:37;3.67;;;1.60;;
17365;SDS011;8800;50.118;9.900;2023-07-29T08:57:04;2.63;;;1.50;;
17365;SDS011;8800;50.118;9.900;2023-07-29T08:59:32;2.88;;;1.40;;
17365;SDS011;8800;50.118;9.900;2023-07-29T09:01:59;2.33;;;1.58;;
17365;SDS011;8800;50.118;9.900;2023-07-29T09:04:25;2.47;;;1.25;;
17365;SDS011;8800;50.118;9.900;2023-07-29T09:06:55;4.50;;;1.35;;
17365;SDS011;8800;50.118;9.900;2023-07-29T09:09:23;6.00;;;1.90;;
17365;SDS011;8800;50.118;9.900;2023-07-29T09:11:50;2.50;;;1.50;;
17365;SDS011;8800;50.118;9.900;2023-07-29T09:14:18;2.25;;;1.30;;
17365;SDS011;8800;50.118;9.900;2023-07-29T09:16:45;1.65;;;1.00;;
17365;SDS011;8800;50.118;9.900;2023-07-29T09:19:12;2.90;;;0.90;;
17365;SDS011;8800;50.118;9.900;2023-07-29T09:21:39;2.88;;;1.00;;
17365;SDS011;8800;50.118;9.900;2023-07-29T09:24:07;2.05;;;1.00;;
17365;SDS011;8800;50.118;9.900;2023-07-29T09:26:35;0.95;;;0.70;;
17365;SDS011;8800;50.118;9.900;2023-07-29T09:29:02;4.28;;;1.00;;
17365;SDS011;8800;50.118;9.900;2023-07-29T09:31:28;1.98;;;0.80;;
17365;SDS011;8800;50.118;9.900;2023-07-29T09:33:55;2.20;;;0.70;;
17365;SDS011;8800;50.118;9.900;2023-07-29T09:36:26;2.35;;;0.90;;
17365;SDS011;8800;50.118;9.900;2023-07-29T09:38:55;1.35;;;0.70;;
17365;SDS011;8800;50.118;9.900;2023-07-29T09:41:23;1.17;;;0.50;;
17365;SDS011;8800;50.118;9.900;2023-07-29T09:43:54;1.40;;;0.60;;
17365;SDS011;8800;50.118;9.900;2023-07-29T09:46:22;1.83;;;0.75;;
17365;SDS011;8800;50.118;9.900;2023-07-29T09:48:52;1.98;;;0.43;;
17365;SDS011;8800;50.118;9.900;2023-07-29T09:51:20;2.10;;;0.65;;
17365;SDS011;8800;50.118;9.900;2023-07-29T09:53:47;2.22;;;0.80;;
17365;SDS011;8800;50.118;9.900;2023-07-29T09:56:14;1.25;;;0.80;;
17365;SDS011;8800;50.118;9.900;2023-07-29T09:58:43;0.90;;;0.60;;
17365;SDS011;8800;50.118;9.900;2023-07-29T10:01:10;0.55;;;0.50;;
17365;SDS011;8800;50.118;9.900;2023-07-29T10:03:37;2.90;;;0.80;;
17365;SDS011;8800;50.118;9.900;2023-07-29T10:06:04;1.77;;;0.85;;
17365;SDS011;8800;50.118;9.900;2023-07-29T10:08:31;1.38;;;0.60;;
17365;SDS011;8800;50.118;9.900;2023-07-29T10:11:01;1.25;;;0.57;;
17365;SDS011;8800;50.118;9.900;2023-07-29T10:13:29;0.80;;;0.80;;
17365;SDS011;8800;50.118;9.900;2023-07-29T10:16:00;1.40;;;0.80;;
17365;SDS011;8800;50.118;9.900;2023-07-29T10:18:30;0.90;;;0.90;;
17365;SDS011;8800;50.118;9.900;2023-07-29T10:20:57;0.88;;;0.65;;
17365;SDS011;8800;50.118;9.900;2023-07-29T10:23:25;2.15;;;0.80;;
17365;SDS011;8800;50.118;9.900;2023-07-29T10:25:55;2.03;;;0.80;;
17365;SDS011;8800;50.118;9.900;2023-07-29T10:28:24;1.00;;;0.80;;
17365;SDS011;8800;50.118;9.900;2023-07-29T10:30:52;1.17;;;0.80;;
17365;SDS011;8800;50.118;9.900;2023-07-29T10:33:19;1.15;;;0.88;;
17365;SDS011;8800;50.118;9.900;2023-07-29T10:35:46;1.52;;;1.10;;
17365;SDS011;8800;50.118;9.900;2023-07-29T10:38:12;1.00;;;0.90;;
17365;SDS011;8800;50.118;9.900;2023-07-29T10:40:45;1.75;;;1.05;;
17365;SDS011;8800;50.118;9.900;2023-07-29T10:43:12;0.98;;;0.80;;
17365;SDS011;8800;50.118;9.900;2023-07-29T10:45:40;1.25;;;0.80;;
17365;SDS011;8800;50.118;9.900;2023-07-29T10:48:08;2.42;;;0.88;;
17365;SDS011;8800;50.118;9.900;2023-07-29T10:50:37;1.45;;;0.90;;
17365;SDS011;8800;50.118;9.900;2023-07-29T10:53:04;2.33;;;0.80;;
17365;SDS011;8800;50.118;9.900;2023-07-29T10:55:32;1.92;;;0.90;;
17365;SDS011;8800;50.118;9.900;2023-07-29T10:58:14;2.33;;;1.30;;
17365;SDS011;8800;50.118;9.900;2023-07-29T11:00:42;1.10;;;0.82;;
17365;SDS011;8800;50.118;9.900;2023-07-29T11:03:09;0.95;;;0.85;;
17365;SDS011;8800;50.118;9.900;2023-07-29T11:05:44;2.78;;;1.10;;
17365;SDS011;8800;50.118;9.900;2023-07-29T11:08:18;1.63;;;1.00;;
17365;SDS011;8800;50.118;9.900;2023-07-29T11:10:45;1.65;;;1.00;;
17365;SDS011;8800;50.118;9.900;2023-07-29T11:13:23;1.05;;;0.90;;
17365;SDS011;8800;50.118;9.900;2023-07-29T11:15:52;2.47;;;1.08;;
17365;SDS011;8800;50.118;9.900;2023-07-29T11:18:19;0.93;;;0.80;;
17365;SDS011;8800;50.118;9.900;2023-07-29T11:20:48;1.98;;;1.05;;
17365;SDS011;8800;50.118;9.900;2023-07-29T11:23:14;1.42;;;1.00;;
17365;SDS011;8800;50.118;9.900;2023-07-29T11:25:41;1.88;;;0.90;;
17365;SDS011;8800;50.118;9.900;2023-07-29T11:28:07;1.55;;;1.00;;
17365;SDS011;8800;50.118;9.900;2023-07-29T11:30:38;1.17;;;0.80;;
17365;SDS011;8800;50.118;9.900;2023-07-29T11:33:06;1.00;;;0.80;;
17365;SDS011;8800;50.118;9.900;2023-07-29T11:35:32;1.10;;;1.00;;
17365;SDS011;8800;50.118;9.900;2023-07-29T11:38:00;1.40;;;1.00;;
17365;SDS011;8800;50.118;9.900;2023-07-29T11:40:27;1.20;;;0.75;;
17365;SDS011;8800;50.118;9.900;2023-07-29T11:42:54;0.90;;;0.77;;
17365;SDS011;8800;50.118;9.900;2023-07-29T11:45:20;1.45;;;0.90;;
17365;SDS011;8800;50.118;9.900;2023-07-29T11:47:47;1.15;;;1.00;;
17365;SDS011;8800;50.118;9.900;2023-07-29T11:50:14;1.23;;;1.00;;
17365;SDS011;8800;50.118;9.900;2023-07-29T11:52:41;2.00;;;1.13;;
17365;SDS011;8800;50.118;9.900;2023-07-29T11:55:09;1.30;;;0.90;;
17365;SDS011;8800;50.118;9.900;2023-07-29T11:57:37;1.70;;;0.90;;
17365;SDS011;8800;50.118;9.900;2023-07-29T12:00:03;0.70;;;0.70;;
17365;SDS011;8800;50.118;9.900;2023-07-29T12:02:31;0.88;;;0.75;;
17365;SDS011;8800;50.118;9.900;2023-07-29T12:04:58;1.30;;;0.98;;
17365;SDS011;8800;50.118;9.900;2023-07-29T12:07:25;1.92;;;1.30;;
17365;SDS011;8800;50.118;9.900;2023-07-29T12:09:51;0.90;;;0.82;;
17365;SDS011;8800;50.118;9.900;2023-07-29T12:12:19;1.33;;;1.00;;
17365;SDS011;8800;50.118;9.900;2023-07-29T12:14:48;2.00;;;0.90;;
17365;SDS011;8800;50.118;9.900;2023-07-29T12:17:15;1.00;;;0.80;;
17365;SDS011;8800;50.118;9.900;2023-07-29T12:19:42;3.42;;;1.10;;
17365;SDS011;8800;50.118;9.900;2023-07-29T12:22:08;1.85;;;1.05;;
17365;SDS011;8800;50.118;9.900;2023-07-29T12:24:37;1.27;;;1.17;;
17365;SDS011;8800;50.118;9.900;2023-07-29T12:27:04;1.20;;;1.10;;
17365;SDS011;8800;50.118;9.900;2023-07-29T12:29:32;3.42;;;1.38;;
17365;SDS011;8800;50.118;9.900;2023-07-29T12:32:05;2.17;;;1.10;;
17365;SDS011;8800;50.118;9.900;2023-07-29T12:34:31;1.52;;;1.08;;
17365;SDS011;8800;50.118;9.900;2023-07-29T12:36:58;1.65;;;1.20;;
17365;SDS011;8800;50.118;9.900;2023-07-29T12:39:25;1.52;;;1.10;;
17365;SDS011;8800;50.118;9.900;2023-07-29T12:41:52;1.20;;;1.02;;
17365;SDS011;8800;50.118;9.900;2023-07-29T12:44:19;1.58;;;1.17;;
17365;SDS011;8800;50.118;9.900;2023-07-29T12:46:47;1.92;;;1.02;;
17365;SDS011;8800;50.118;9.900;2023-07-29T12:49:13;1.38;;;1.08;;
17365;SDS011;8800;50.118;9.900;2023-07-29T12:51:40;1.33;;;1.10;;
17365;SDS011;8800;50.118;9.900;2023-07-29T12:54:07;1.30;;;1.20;;
17365;SDS011;8800;50.118;9.900;2023-07-29T12:56:33;1.33;;;1.20;;
17365;SDS011;8800;50.118;9.900;2023-07-29T12:59:00;1.63;;;1.20;;
17365;SDS011;8800;50.118;9.900;2023-07-29T13:01:27;2.20;;;1.33;;
17365;SDS011;8800;50.118;9.900;2023-07-29T13:03:55;1.52;;;1.10;;
17365;SDS011;8800;50.118;9.900;2023-07-29T13:06:22;1.73;;;1.10;;
17365;SDS011;8800;50.118;9.900;2023-07-29T13:08:48;1.30;;;1.10;;
17365;SDS011;8800;50.118;9.900;2023-07-29T13:11:15;1.70;;;1.33;;
17365;SDS011;8800;50.118;9.900;2023-07-29T13:13:42;1.80;;;1.30;;
17365;SDS011;8800;50.118;9.900;2023-07-29T13:16:10;2.20;;;1.20;;
17365;SDS011;8800;50.118;9.900;2023-07-29T13:18:36;1.60;;;1.30;;
17365;SDS011;8800;50.118;9.900;2023-07-29T13:21:04;2.53;;;1.60;;
17365;SDS011;8800;50.118;9.900;2023-07-29T13:23:31;1.80;;;1.23;;
17365;SDS011;8800;50.118;9.900;2023-07-29T13:25:57;1.63;;;1.30;;
17365;SDS011;8800;50.118;9.900;2023-07-29T13:28:24;3.28;;;1.25;;
17365;SDS011;8800;50.118;9.900;2023-07-29T13:30:50;1.95;;;1.50;;
17365;SDS011;8800;50.118;9.900;2023-07-29T13:33:17;1.88;;;1.55;;
17365;SDS011;8800;50.118;9.900;2023-07-29T13:35:43;1.60;;;1.35;;
17365;SDS011;8800;50.118;9.900;2023-07-29T13:38:11;2.47;;;1.50;;
17365;SDS011;8800;50.118;9.900;2023-07-29T13:40:37;2.67;;;1.33;;
17365;SDS011;8800;50.118;9.900;2023-07-29T13:43:04;2.00;;;1.27;;
17365;SDS011;8800;50.118;9.900;2023-07-29T13:45:31;2.05;;;1.38;;
17365;SDS011;8800;50.118;9.900;2023-07-29T13:47:59;5.10;;;1.70;;
17365;SDS011;8800;50.118;9.900;2023-07-29T13:50:25;2.90;;;1.42;;
17365;SDS011;8800;50.118;9.900;2023-07-29T13:52:52;2.55;;;1.30;;
17365;SDS011;8800;50.118;9.900;2023-07-29T13:55:19;3.28;;;1.30;;
17365;SDS011;8800;50.118;9.900;2023-07-29T13:57:46;2.00;;;1.40;;
17365;SDS011;8800;50.118;9.900;2023-07-29T14:00:13;1.27;;;0.98;;
17365;SDS011;8800;50.118;9.900;2023-07-29T14:02:40;2.05;;;1.10;;
17365;SDS011;8800;50.118;9.900;2023-07-29T14:05:06;1.60;;;1.33;;
17365;SDS011;8800;50.118;9.900;2023-07-29T14:07:33;1.77;;;1.38;;
17365;SDS011;8800;50.118;9.900;2023-07-29T14:10:00;2.17;;;1.17;;
17365;SDS011;8800;50.118;9.900;2023-07-29T14:12:28;3.20;;;1.60;;
17365;SDS011;8800;50.118;9.900;2023-07-29T14:14:54;4.45;;;1.40;;
17365;SDS011;8800;50.118;9.900;2023-07-29T14:17:22;4.60;;;1.55;;
17365;SDS011;8800;50.118;9.900;2023-07-29T14:19:48;1.67;;;1.30;;
17365;SDS011;8800;50.118;9.900;2023-07-29T14:22:15;3.03;;;1.30;;
17365;SDS011;8800;50.118;9.900;2023-07-29T14:24:41;2.35;;;1.38;;
17365;SDS011;8800;50.118;9.900;2023-07-29T14:27:08;1.98;;;1.15;;
17365;SDS011;8800;50.118;9.900;2023-07-29T14:29:36;1.60;;;1.23;;
17365;SDS011;8800;50.118;9.900;2023-07-29T14:32:03;1.98;;;1.30;;
17365;SDS011;8800;50.118;9.900;2023-07-29T14:34:30;2.45;;;1.20;;
17365;SDS011;8800;50.118;9.900;2023-07-29T14:36:56;1.50;;;1.40;;
17365;SDS011;8800;50.118;9.900;2023-07-29T14:39:23;1.65;;;1.40;;
17365;SDS011;8800;50.118;9.900;2023-07-29T14:41:49;3.55;;;1.65;;
17365;SDS011;8800;50.118;9.900;2023-07-29T14:44:16;1.73;;;1.40;;
17365;SDS011;8800;50.118;9.900;2023-07-29T14:46:44;1.67;;;1.50;;
17365;SDS011;8800;50.118;9.900;2023-07-29T14:49:10;3.67;;;1.30;;
17365;SDS011;8800;50.118;9.900;2023-07-29T14:51:37;1.92;;;1.50;;
17365;SDS011;8800;50.118;9.900;2023-07-29T14:54:04;3.10;;;1.48;;
17365;SDS011;8800;50.118;9.900;2023-07-29T14:56:30;3.08;;;1.55;;
17365;SDS011;8800;50.118;9.900;2023-07-29T14:58:57;2.42;;;1.40;;
17365;SDS011;8800;50.118;9.900;2023-07-29T15:01:25;1.80;;;1.33;;